sensor_id;sensor_type;location;lat;lon;timestamp;P1;durP1;ratioP1;P2;durP2;ratioP2
7247;SDS011;3665;51.034;13.642;2023-04-01T00:01:34;2.63;;;0.70;;
7247;SDS011;3665;51.034;13.642;2023-04-01T00:06:27;1.63;;;0.80;;
7247;SDS011;3665;51.034;13.642;2023-04-01T00:11:12;1.37;;;0.73;;
7247;SDS011;3665;51.034;13.642;2023-04-01T00:16:00;1.93;;;1.10;;
7247;SDS011;3665;51.034;13.642;2023-04-01T00:21:04;1.80;;;0.73;;
7247;SDS011;3665;51.034;13.642;2023-04-01T00:25:51;1.50;;;0.60;;
7247;SDS011;3665;51.034;13.642;2023-04-01T00:30:39;1.67;;;0.90;;
7247;SDS011;3665;51.034;13.642;2023-04-01T00:35:33;1.20;;;0.93;;
7247;SDS011;3665;51.034;13.642;2023-04-01T00:40:35;2.93;;;1.13;;
7247;SDS011;3665;51.034;13.642;2023-04-01T00:45:40;1.50;;;1.00;;
7247;SDS011;3665;51.034;13.642;2023-04-01T00:50:42;2.33;;;0.87;;
7247;SDS011;3665;51.034;13.642;2023-04-01T00:55:59;1.70;;;0.87;;
7247;SDS011;3665;51.034;13.642;2023-04-01T01:00:51;3.50;;;0.90;;
7247;SDS011;3665;51.034;13.642;2023-04-01T01:06:00;2.40;;;0.63;;
7247;SDS011;3665;51.034;13.642;2023-04-01T01:10:54;2.87;;;0.97;;
7247;SDS011;3665;51.034;13.642;2023-04-01T01:16:00;3.53;;;1.13;;
7247;SDS011;3665;51.034;13.642;2023-04-01T01:43:16;1.50;;;0.80;;
7247;SDS011;3665;51.034;13.642;2023-04-01T01:48:14;1.70;;;0.90;;
7247;SDS011;3665;51.034;13.642;2023-04-01T01:53:05;2.40;;;1.13;;
7247;SDS011;3665;51.034;13.642;2023-04-01T01:57:51;2.07;;;0.80;;
7247;SDS011;3665;51.034;13.642;2023-04-01T02:02:38;3.00;;;1.00;;
7247;SDS011;3665;51.034;13.642;2023-04-01T02:07:29;1.87;;;0.87;;
7247;SDS011;3665;51.034;13.642;2023-04-01T02:12:17;2.60;;;0.80;;
7247;SDS011;3665;51.034;13.642;2023-04-01T02:17:05;2.37;;;1.07;;
7247;SDS011;3665;51.034;13.642;2023-04-01T02:22:16;1.80;;;1.00;;
7247;SDS011;3665;51.034;13.642;2023-04-01T02:27:12;2.23;;;1.00;;
7247;SDS011;3665;51.034;13.642;2023-04-01T02:32:00;2.83;;;1.67;;
7247;SDS011;3665;51.034;13.642;2023-04-01T02:36:48;1.37;;;1.03;;
7247;SDS011;3665;51.034;13.642;2023-04-01T02:41:50;4.27;;;1.27;;
7247;SDS011;3665;51.034;13.642;2023-04-01T02:46:56;4.63;;;1.43;;
7247;SDS011;3665;51.034;13.642;2023-04-01T02:51:45;3.23;;;1.37;;
7247;SDS011;3665;51.034;13.642;2023-04-01T02:56:30;2.30;;;1.23;;
7247;SDS011;3665;51.034;13.642;2023-04-01T03:01:23;3.47;;;1.17;;
7247;SDS011;3665;51.034;13.642;2023-04-01T03:06:23;4.20;;;1.33;;
7247;SDS011;3665;51.034;13.642;2023-04-01T03:11:30;1.60;;;0.97;;
7247;SDS011;3665;51.034;13.642;2023-04-01T03:16:30;2.93;;;1.50;;
7247;SDS011;3665;51.034;13.642;2023-04-01T03:26:24;3.07;;;1.17;;
7247;SDS011;3665;51.034;13.642;2023-04-01T03:31:13;3.90;;;1.13;;
7247;SDS011;3665;51.034;13.642;2023-04-01T03:36:30;4.10;;;1.20;;
7247;SDS011;3665;51.034;13.642;2023-04-01T03:41:18;3.57;;;1.10;;
7247;SDS011;3665;51.034;13.642;2023-04-01T03:46:16;4.60;;;1.20;;
7247;SDS011;3665;51.034;13.642;2023-04-01T03:51:10;2.97;;;1.13;;
7247;SDS011;3665;51.034;13.642;2023-04-01T03:56:03;3.00;;;1.50;;
7247;SDS011;3665;51.034;13.642;2023-04-01T04:01:21;2.80;;;1.00;;
7247;SDS011;3665;51.034;13.642;2023-04-01T04:06:23;2.23;;;0.83;;
7247;SDS011;3665;51.034;13.642;2023-04-01T04:11:14;3.97;;;1.00;;
7247;SDS011;3665;51.034;13.642;2023-04-01T04:15:58;1.10;;;1.00;;
7247;SDS011;3665;51.034;13.642;2023-04-01T04:20:47;3.50;;;1.17;;
7247;SDS011;3665;51.034;13.642;2023-04-01T04:25:36;2.60;;;1.10;;
7247;SDS011;3665;51.034;13.642;2023-04-01T04:30:39;2.23;;;0.97;;
7247;SDS011;3665;51.034;13.642;2023-04-01T04:35:26;2.17;;;0.70;;
7247;SDS011;3665;51.034;13.642;2023-04-01T04:40:18;2.43;;;0.77;;
7247;SDS011;3665;51.034;13.642;2023-04-01T04:45:03;3.53;;;1.00;;
7247;SDS011;3665;51.034;13.642;2023-04-01T04:49:50;1.07;;;0.70;;
7247;SDS011;3665;51.034;13.642;2023-04-01T05:00:17;2.80;;;0.97;;
7247;SDS011;3665;51.034;13.642;2023-04-01T05:05:12;3.20;;;0.70;;
7247;SDS011;3665;51.034;13.642;2023-04-01T05:15:31;2.67;;;0.90;;
7247;SDS011;3665;51.034;13.642;2023-04-01T05:20:16;3.00;;;0.90;;
7247;SDS011;3665;51.034;13.642;2023-04-01T05:25:04;3.77;;;1.13;;
7247;SDS011;3665;51.034;13.642;2023-04-01T05:29:51;1.43;;;1.13;;
7247;SDS011;3665;51.034;13.642;2023-04-01T05:35:28;1.40;;;0.70;;
7247;SDS011;3665;51.034;13.642;2023-04-01T05:40:14;1.97;;;0.93;;
7247;SDS011;3665;51.034;13.642;2023-04-01T05:45:02;4.37;;;0.97;;
7247;SDS011;3665;51.034;13.642;2023-04-01T05:50:09;4.23;;;1.00;;
7247;SDS011;3665;51.034;13.642;2023-04-01T05:55:17;2.20;;;0.83;;
7247;SDS011;3665;51.034;13.642;2023-04-01T06:00:17;1.50;;;0.90;;
7247;SDS011;3665;51.034;13.642;2023-04-01T06:05:20;1.87;;;0.93;;
7247;SDS011;3665;51.034;13.642;2023-04-01T06:10:43;1.83;;;0.90;;
7247;SDS011;3665;51.034;13.642;2023-04-01T06:16:01;1.33;;;0.77;;
7247;SDS011;3665;51.034;13.642;2023-04-01T06:27:13;3.13;;;1.00;;
7247;SDS011;3665;51.034;13.642;2023-04-01T06:32:30;1.87;;;0.90;;
7247;SDS011;3665;51.034;13.642;2023-04-01T06:37:43;3.20;;;1.10;;
7247;SDS011;3665;51.034;13.642;2023-04-01T06:48:51;2.23;;;0.90;;
7247;SDS011;3665;51.034;13.642;2023-04-01T06:54:24;3.17;;;1.03;;
7247;SDS011;3665;51.034;13.642;2023-04-01T06:59:35;1.83;;;0.83;;
7247;SDS011;3665;51.034;13.642;2023-04-01T07:04:31;1.53;;;0.80;;
7247;SDS011;3665;51.034;13.642;2023-04-01T07:09:19;2.27;;;1.20;;
7247;SDS011;3665;51.034;13.642;2023-04-01T07:14:32;1.43;;;0.73;;
7247;SDS011;3665;51.034;13.642;2023-04-01T07:19:29;1.53;;;0.50;;
7247;SDS011;3665;51.034;13.642;2023-04-01T07:24:24;2.40;;;0.80;;
7247;SDS011;3665;51.034;13.642;2023-04-01T07:29:26;1.33;;;0.70;;
7247;SDS011;3665;51.034;13.642;2023-04-01T07:34:25;1.73;;;0.73;;
7247;SDS011;3665;51.034;13.642;2023-04-01T07:39:18;2.33;;;0.80;;
7247;SDS011;3665;51.034;13.642;2023-04-01T07:44:34;4.73;;;1.10;;
7247;SDS011;3665;51.034;13.642;2023-04-01T07:49:38;2.10;;;0.60;;
7247;SDS011;3665;51.034;13.642;2023-04-01T07:54:39;0.93;;;0.63;;
7247;SDS011;3665;51.034;13.642;2023-04-01T07:59:45;2.00;;;0.70;;
7247;SDS011;3665;51.034;13.642;2023-04-01T08:05:06;1.77;;;0.87;;
7247;SDS011;3665;51.034;13.642;2023-04-01T08:10:47;1.40;;;0.80;;
7247;SDS011;3665;51.034;13.642;2023-04-01T08:22:09;2.57;;;1.00;;
7247;SDS011;3665;51.034;13.642;2023-04-01T08:27:16;2.30;;;0.63;;
7247;SDS011;3665;51.034;13.642;2023-04-01T08:37:51;1.90;;;0.67;;
7247;SDS011;3665;51.034;13.642;2023-04-01T08:42:48;2.63;;;0.63;;
7247;SDS011;3665;51.034;13.642;2023-04-01T08:59:19;2.27;;;0.70;;
7247;SDS011;3665;51.034;13.642;2023-04-01T09:16:23;1.00;;;0.70;;
7247;SDS011;3665;51.034;13.642;2023-04-01T09:21:37;2.53;;;0.90;;
7247;SDS011;3665;51.034;13.642;2023-04-01T09:27:03;1.83;;;0.53;;
7247;SDS011;3665;51.034;13.642;2023-04-01T09:32:32;0.87;;;0.73;;
7247;SDS011;3665;51.034;13.642;2023-04-01T09:54:26;0.93;;;0.47;;
7247;SDS011;3665;51.034;13.642;2023-04-01T10:26:39;3.13;;;0.87;;
7247;SDS011;3665;51.034;13.642;2023-04-01T10:54:31;0.50;;;0.50;;
7247;SDS011;3665;51.034;13.642;2023-04-01T11:00:05;0.50;;;0.50;;
7247;SDS011;3665;51.034;13.642;2023-04-01T11:17:03;2.77;;;0.50;;
7247;SDS011;3665;51.034;13.642;2023-04-01T11:33:03;1.37;;;0.50;;
7247;SDS011;3665;51.034;13.642;2023-04-01T11:37:53;1.10;;;0.50;;
7247;SDS011;3665;51.034;13.642;2023-04-01T11:43:31;0.93;;;0.50;;
7247;SDS011;3665;51.034;13.642;2023-04-01T11:48:50;0.50;;;0.40;;
7247;SDS011;3665;51.034;13.642;2023-04-01T11:53:57;0.97;;;0.50;;
7247;SDS011;3665;51.034;13.642;2023-04-01T11:58:56;0.47;;;0.40;;
7247;SDS011;3665;51.034;13.642;2023-04-01T12:04:00;0.60;;;0.40;;
7247;SDS011;3665;51.034;13.642;2023-04-01T12:09:04;0.90;;;0.60;;
7247;SDS011;3665;51.034;13.642;2023-04-01T12:14:16;0.73;;;0.50;;
7247;SDS011;3665;51.034;13.642;2023-04-01T12:19:13;0.50;;;0.50;;
7247;SDS011;3665;51.034;13.642;2023-04-01T12:24:32;1.53;;;0.80;;
7247;SDS011;3665;51.034;13.642;2023-04-01T12:35:01;1.20;;;0.73;;
7247;SDS011;3665;51.034;13.642;2023-04-01T12:40:02;1.47;;;0.50;;
7247;SDS011;3665;51.034;13.642;2023-04-01T12:45:08;1.13;;;0.60;;
7247;SDS011;3665;51.034;13.642;2023-04-01T12:50:28;2.00;;;0.50;;
7247;SDS011;3665;51.034;13.642;2023-04-01T12:55:32;0.30;;;0.30;;
7247;SDS011;3665;51.034;13.642;2023-04-01T13:00:49;0.50;;;0.40;;
7247;SDS011;3665;51.034;13.642;2023-04-01T13:11:31;0.30;;;0.30;;
7247;SDS011;3665;51.034;13.642;2023-04-01T13:16:30;0.70;;;0.37;;
7247;SDS011;3665;51.034;13.642;2023-04-01T13:21:21;0.40;;;0.40;;
7247;SDS011;3665;51.034;13.642;2023-04-01T13:26:25;0.30;;;0.17;;
7247;SDS011;3665;51.034;13.642;2023-04-01T13:31:34;0.40;;;0.27;;
7247;SDS011;3665;51.034;13.642;2023-04-01T13:36:33;0.30;;;0.30;;
7247;SDS011;3665;51.034;13.642;2023-04-01T13:41:38;0.50;;;0.40;;
7247;SDS011;3665;51.034;13.642;2023-04-01T13:46:57;0.37;;;0.33;;
7247;SDS011;3665;51.034;13.642;2023-04-01T13:52:04;0.20;;;0.20;;
7247;SDS011;3665;51.034;13.642;2023-04-01T13:57:25;0.23;;;0.23;;
7247;SDS011;3665;51.034;13.642;2023-04-01T14:02:44;0.40;;;0.40;;
7247;SDS011;3665;51.034;13.642;2023-04-01T14:07:50;0.40;;;0.40;;
7247;SDS011;3665;51.034;13.642;2023-04-01T14:13:07;0.77;;;0.60;;
7247;SDS011;3665;51.034;13.642;2023-04-01T14:18:12;0.67;;;0.47;;
7247;SDS011;3665;51.034;13.642;2023-04-01T14:23:35;0.70;;;0.40;;
7247;SDS011;3665;51.034;13.642;2023-04-01T14:29:07;0.93;;;0.53;;
7247;SDS011;3665;51.034;13.642;2023-04-01T14:35:49;0.67;;;0.40;;
7247;SDS011;3665;51.034;13.642;2023-04-01T14:40:56;0.40;;;0.30;;
7247;SDS011;3665;51.034;13.642;2023-04-01T14:51:29;0.87;;;0.27;;
7247;SDS011;3665;51.034;13.642;2023-04-01T14:56:15;0.23;;;0.23;;
7247;SDS011;3665;51.034;13.642;2023-04-01T15:01:25;0.30;;;0.30;;
7247;SDS011;3665;51.034;13.642;2023-04-01T15:06:40;0.20;;;0.20;;
7247;SDS011;3665;51.034;13.642;2023-04-01T15:11:43;0.27;;;0.27;;
7247;SDS011;3665;51.034;13.642;2023-04-01T15:16:40;0.30;;;0.30;;
7247;SDS011;3665;51.034;13.642;2023-04-01T15:21:53;0.43;;;0.40;;
7247;SDS011;3665;51.034;13.642;2023-04-01T15:26:55;0.40;;;0.40;;
7247;SDS011;3665;51.034;13.642;2023-04-01T15:31:54;0.67;;;0.37;;
7247;SDS011;3665;51.034;13.642;2023-04-01T15:36:50;0.33;;;0.33;;
7247;SDS011;3665;51.034;13.642;2023-04-01T15:41:55;0.37;;;0.37;;
7247;SDS011;3665;51.034;13.642;2023-04-01T15:47:03;0.67;;;0.50;;
7247;SDS011;3665;51.034;13.642;2023-04-01T15:52:19;0.30;;;0.30;;
7247;SDS011;3665;51.034;13.642;2023-04-01T15:57:14;0.63;;;0.47;;
7247;SDS011;3665;51.034;13.642;2023-04-01T16:02:10;0.60;;;0.60;;
7247;SDS011;3665;51.034;13.642;2023-04-01T16:07:09;0.40;;;0.40;;
7247;SDS011;3665;51.034;13.642;2023-04-01T16:12:07;0.50;;;0.50;;
7247;SDS011;3665;51.034;13.642;2023-04-01T16:22:16;0.50;;;0.50;;
7247;SDS011;3665;51.034;13.642;2023-04-01T16:27:27;1.93;;;0.80;;
7247;SDS011;3665;51.034;13.642;2023-04-01T16:32:28;0.97;;;0.47;;
7247;SDS011;3665;51.034;13.642;2023-04-01T16:37:29;0.93;;;0.60;;
7247;SDS011;3665;51.034;13.642;2023-04-01T16:42:38;0.97;;;0.87;;
7247;SDS011;3665;51.034;13.642;2023-04-01T16:47:35;0.50;;;0.50;;
7247;SDS011;3665;51.034;13.642;2023-04-01T16:52:30;0.73;;;0.60;;
7247;SDS011;3665;51.034;13.642;2023-04-01T16:57:30;1.90;;;1.23;;
7247;SDS011;3665;51.034;13.642;2023-04-01T21:03:08;4.57;;;3.40;;
7247;SDS011;3665;51.034;13.642;2023-04-01T21:08:11;4.67;;;4.10;;
7247;SDS011;3665;51.034;13.642;2023-04-01T21:13:47;5.10;;;4.20;;
7247;SDS011;3665;51.034;13.642;2023-04-01T21:19:03;3.63;;;3.27;;
7247;SDS011;3665;51.034;13.642;2023-04-01T21:30:34;5.03;;;4.27;;
7247;SDS011;3665;51.034;13.642;2023-04-01T21:35:37;4.77;;;4.37;;
7247;SDS011;3665;51.034;13.642;2023-04-01T22:04:45;3.40;;;3.10;;
7247;SDS011;3665;51.034;13.642;2023-04-01T22:09:44;3.93;;;3.63;;
7247;SDS011;3665;51.034;13.642;2023-04-01T22:14:48;7.37;;;4.43;;
7247;SDS011;3665;51.034;13.642;2023-04-01T22:25:28;3.50;;;3.20;;
7247;SDS011;3665;51.034;13.642;2023-04-01T22:30:32;3.40;;;3.10;;
7247;SDS011;3665;51.034;13.642;2023-04-01T22:41:47;3.03;;;2.77;;
7247;SDS011;3665;51.034;13.642;2023-04-01T22:46:55;3.73;;;2.87;;
7247;SDS011;3665;51.034;13.642;2023-04-01T22:52:13;4.97;;;3.50;;
7247;SDS011;3665;51.034;13.642;2023-04-01T22:57:46;4.47;;;4.07;;
7247;SDS011;3665;51.034;13.642;2023-04-01T23:02:47;5.67;;;4.20;;
7247;SDS011;3665;51.034;13.642;2023-04-01T23:13:29;5.67;;;4.73;;
7247;SDS011;3665;51.034;13.642;2023-04-01T23:18:32;5.57;;;4.80;;
7247;SDS011;3665;51.034;13.642;2023-04-01T23:24:09;5.03;;;4.43;;
7247;SDS011;3665;51.034;13.642;2023-04-01T23:35:20;5.23;;;4.60;;
7247;SDS011;3665;51.034;13.642;2023-04-01T23:40:10;4.77;;;4.33;;
7247;SDS011;3665;51.034;13.642;2023-04-01T23:45:11;4.83;;;4.37;;
7247;SDS011;3665;51.034;13.642;2023-04-01T23:49:59;4.37;;;3.97;;
7247;SDS011;3665;51.034;13.642;2023-04-01T23:54:49;4.63;;;4.23;;
7247;SDS011;3665;51.034;13.642;2023-04-01T23:59:36;4.27;;;3.87;;
